Skip Navigation LinksHome page > Weather > Current weather Skip Navigation Links

Current Weather

General Edward Lawrence Logan Intl, Boston

For information only: do not use for flight planning or navigation.
Latest weather
Observation time Sunday, May 26, 2019 10:54 AM EDT
Local time Sunday, May 26, 2019 11:33 AM EDT
Flight conditions Visual Meteorological Conditions
Winds
Wind direction West (270°)
Wind speed 10 mph
Visibility 10 mi.
Sky condition
Ceiling unlimited
Cloud layer few clouds 2,500 ft.
Cloud layer few clouds 6,000 ft.
Cloud layer scattered clouds 25,000 ft.
Temperature 77°F
Dewpoint 59°F
Altimeter 29.87 in.Hg
Pressure change last 3 hours0.01 in.Hg
Pressure falling more slowly
Derived measurements
Relative humidity 54%
Heat index 77°F
Density altitude 1472 ft.
Sea-level pressure 29.86 in.Hg
Remarks
Automated weather observing station with precipitation discriminator.
METAR KBOS 261454Z 27009KT 10SM FEW025 FEW060 SCT250 25/15 A2987 RMK AO2 SLP113 T02500150 56003

Settings

Location code

InnerDrive.Weather 4.0.6770.0 Release CLR 4.0.30319.42000
Copyright ©2018 Inner Drive Technology. All rights reserved. Portions Copyright ©1986-2018 David Braverman.

Find weather

Site navigation


Skip Navigation Links

Place info

Page info

PayPal - The safer, easier way to pay online!

Return home.

Copyright ©2019 Inner Drive Technology. Purveyors of fine, hand-crafted computer software. Page printed 2019-05-26T15:33:35 UTC.